Time;durP1;ratioP1;P1;durP2;ratioP2;P2;SDS_P1;SDS_P2;PMS_P1;PMS_P2;Temp;Humidity;BMP_temperature;BMP_pressure;BME280_temperature;BME280_humidity;BME280_pressure;Samples;Min_cycle;Max_cycle;Signal;HPM_P1;HPM_P2
2021/09/17 00:00:45;;;;;;;9.10;8.10;;;;;;;19.07;67.90;99951.97;4916012;28;96539;-76
2021/09/17 00:03:10;;;;;;;8.98;8.18;;;;;;;19.00;67.59;99948.94;4931278;28;101021;-76
2021/09/17 00:05:36;;;;;;;8.68;7.88;;;;;;;18.99;67.72;99949.91;4883236;28;101332;-76
2021/09/17 00:08:01;;;;;;;8.70;8.00;;;;;;;19.08;67.48;99947.50;4899535;28;98430;-76
2021/09/17 00:10:27;;;;;;;9.93;7.40;;;;;;;18.94;67.66;99938.75;4915697;28;96858;-76
2021/09/17 00:12:52;;;;;;;10.13;7.65;;;;;;;18.95;67.92;99951.06;4899351;28;97484;-76
2021/09/17 00:15:18;;;;;;;9.10;8.27;;;;;;;18.89;67.65;99943.56;4931435;28;97222;-76
2021/09/17 00:17:45;;;;;;;9.95;7.72;;;;;;;18.89;67.87;99948.03;4883395;28;96542;-76
2021/09/17 00:20:11;;;;;;;8.50;7.70;;;;;;;18.87;67.60;99941.97;4931602;28;96826;-76
2021/09/17 00:22:37;;;;;;;9.05;7.65;;;;;;;18.78;67.85;99941.69;4930906;28;98113;-76
2021/09/17 00:25:05;;;;;;;8.45;7.60;;;;;;;18.82;67.36;99937.00;4914633;28;101420;-76
2021/09/17 00:27:30;;;;;;;7.60;6.90;;;;;;;18.75;67.42;99938.41;4883196;28;96643;-76
2021/09/17 00:29:56;;;;;;;8.38;7.57;;;;;;;18.73;67.57;99932.31;4915302;28;96863;-76
2021/09/17 00:32:21;;;;;;;7.97;7.18;;;;;;;18.75;67.04;99923.31;4898584;28;101562;-76
2021/09/17 00:34:47;;;;;;;8.70;7.50;;;;;;;18.83;66.86;99929.88;4898709;28;99335;-76
2021/09/17 00:37:12;;;;;;;7.78;6.85;;;;;;;18.78;66.98;99932.88;4898918;28;96578;-76
2021/09/17 00:39:38;;;;;;;8.30;7.50;;;;;;;18.74;66.91;99921.63;4899693;28;96852;-76
2021/09/17 00:42:03;;;;;;;8.07;6.60;;;;;;;18.72;66.96;99923.50;4914772;28;97604;-76
2021/09/17 00:44:29;;;;;;;8.60;7.22;;;;;;;18.68;67.20;99930.03;4915939;28;97816;-76
2021/09/17 00:46:57;;;;;;;8.07;7.47;;;;;;;18.69;66.82;99928.22;4930486;28;96665;-76
2021/09/17 00:49:24;;;;;;;8.80;7.88;;;;;;;18.51;67.10;99917.97;4898491;28;97068;-76
2021/09/17 00:51:50;;;;;;;15.85;8.23;;;;;;;18.62;67.08;99919.84;4897644;28;101118;-76
2021/09/17 00:54:16;;;;;;;8.63;7.53;;;;;;;18.60;67.10;99926.22;4914327;28;100705;-76
2021/09/17 00:56:42;;;;;;;9.18;8.23;;;;;;;18.60;67.10;99929.72;4898949;28;96634;-76
2021/09/17 00:59:08;;;;;;;8.57;7.45;;;;;;;18.57;67.17;99923.81;4930512;28;97103;-76
2021/09/17 01:01:36;;;;;;;7.97;7.35;;;;;;;18.66;66.95;99923.13;4915888;28;97483;-76
2021/09/17 01:04:01;;;;;;;8.93;8.23;;;;;;;18.63;66.82;99924.19;4882976;28;100947;-76
2021/09/17 01:06:28;;;;;;;9.25;8.35;;;;;;;18.62;66.79;99922.50;4898489;28;98257;-76
2021/09/17 01:08:53;;;;;;;9.57;8.23;;;;;;;18.62;66.89;99919.00;4930745;28;96995;-76
2021/09/17 01:11:19;;;;;;;10.68;9.68;;;;;;;18.49;67.35;99914.56;4897880;28;101003;-76
2021/09/17 01:13:45;;;;;;;11.18;9.93;;;;;;;18.49;67.21;99911.06;4882408;28;101482;-76
2021/09/17 01:16:11;;;;;;;10.35;9.50;;;;;;;18.49;67.21;99908.41;4916158;28;96588;-76
2021/09/17 01:18:36;;;;;;;9.45;8.65;;;;;;;18.48;66.91;99909.38;4899101;28;96824;-76
2021/09/17 01:21:03;;;;;;;9.55;8.70;;;;;;;18.48;66.67;99906.72;4898008;28;100990;-76
2021/09/17 01:23:29;;;;;;;10.05;9.13;;;;;;;18.55;66.91;99906.13;4898589;28;98089;-76
2021/09/17 01:25:54;;;;;;;9.05;8.23;;;;;;;18.47;66.56;99907.66;4930752;28;96570;-76
2021/09/17 01:28:30;;;;;;;13.32;7.72;;;;;;;18.42;67.16;99908.03;4931055;28;96854;-76
2021/09/17 01:30:55;;;;;;;9.55;8.55;;;;;;;18.33;67.16;99896.25;4914163;28;101243;-76
2021/09/17 01:33:21;;;;;;;8.82;8.05;;;;;;;18.42;67.05;99909.84;4882108;28;100597;-76
2021/09/17 01:35:56;;;;;;;8.70;7.88;;;;;;;18.34;67.15;99907.72;4930249;28;96595;-76
2021/09/17 01:38:21;;;;;;;12.35;8.38;;;;;;;18.33;67.30;99904.22;4930333;28;96666;-76
2021/09/17 01:40:46;;;;;;;9.30;8.23;;;;;;;18.32;67.41;99912.28;4897849;28;101550;-76
2021/09/17 01:43:12;;;;;;;10.43;9.23;;;;;;;18.28;66.97;99902.84;4897735;28;100866;-76
2021/09/17 01:45:37;;;;;;;9.85;8.43;;;;;;;18.26;67.04;99896.81;4898065;28;96632;-76
2021/09/17 01:48:03;;;;;;;9.18;8.27;;;;;;;18.25;67.01;99890.66;4898012;28;97009;-76
2021/09/17 01:50:29;;;;;;;9.18;8.30;;;;;;;18.24;66.87;99899.59;4913946;28;98141;-77
2021/09/17 01:52:54;;;;;;;11.80;8.25;;;;;;;18.18;66.58;99892.06;4898232;28;100748;-76
2021/09/17 01:55:23;;;;;;;9.70;8.70;;;;;;;18.18;67.07;99899.16;4913806;28;96525;-76
2021/09/17 01:57:50;;;;;;;8.82;8.02;;;;;;;18.20;66.89;99899.91;4914239;28;96769;-76
2021/09/17 02:00:16;;;;;;;8.82;8.02;;;;;;;18.15;66.69;99892.28;4929002;28;101371;-76
2021/09/17 02:02:41;;;;;;;10.30;8.73;;;;;;;18.06;66.61;99888.50;4916080;28;97601;-76
2021/09/17 02:05:07;;;;;;;10.77;8.23;;;;;;;18.00;66.54;99880.94;4916972;28;96585;-76
2021/09/17 02:07:33;;;;;;;14.77;7.88;;;;;;;17.94;67.15;99886.69;4916965;28;96886;-76
2021/09/17 02:09:58;;;;;;;11.93;8.80;;;;;;;17.92;67.02;99890.41;4901118;28;98624;-76
2021/09/17 02:12:25;;;;;;;9.55;8.60;;;;;;;17.90;67.07;99884.38;4917211;28;97855;-77
2021/09/17 02:14:51;;;;;;;9.05;8.15;;;;;;;17.86;66.72;99881.09;4901194;28;96581;-76
2021/09/17 02:17:17;;;;;;;11.73;7.90;;;;;;;17.83;66.90;99879.50;4884981;28;96882;-76
2021/09/17 02:19:42;;;;;;;8.95;7.63;;;;;;;17.70;67.01;99883.09;4884684;28;101451;-76
2021/09/17 02:22:08;;;;;;;9.30;8.18;;;;;;;17.78;66.60;99871.00;4917845;28;98012;-76
2021/09/17 02:24:34;;;;;;;11.93;7.93;;;;;;;17.67;66.59;99873.53;4917932;28;96527;-76
2021/09/17 02:26:59;;;;;;;8.13;7.35;;;;;;;17.60;67.17;99864.31;4916986;28;96737;-76
2021/09/17 02:29:24;;;;;;;8.13;7.28;;;;;;;17.69;66.55;99868.13;4916587;28;97429;-76
2021/09/17 02:31:50;;;;;;;8.45;7.65;;;;;;;17.59;66.88;99876.72;4916816;28;97459;-76
2021/09/17 02:34:15;;;;;;;8.73;8.02;;;;;;;17.53;66.87;99866.53;4901297;28;96693;-76
2021/09/17 02:36:41;;;;;;;8.32;7.50;;;;;;;17.47;67.01;99866.13;4901277;28;96812;-76
2021/09/17 02:39:07;;;;;;;8.45;7.60;;;;;;;17.48;67.18;99862.50;4900559;28;98102;-76
2021/09/17 02:41:33;;;;;;;8.88;7.88;;;;;;;17.39;67.08;99859.56;4900972;28;97449;-76
2021/09/17 02:43:58;;;;;;;15.75;7.75;;;;;;;17.38;67.23;99860.50;4900535;28;96552;-76
2021/09/17 02:46:24;;;;;;;8.90;8.00;;;;;;;17.39;67.13;99859.56;4900819;28;96869;-76
2021/09/17 02:48:49;;;;;;;10.07;8.73;;;;;;;17.38;66.99;99865.81;4899685;28;101330;-76
2021/09/17 02:51:15;;;;;;;10.38;8.15;;;;;;;17.32;67.07;99857.44;4900093;28;100914;-76
2021/09/17 02:53:40;;;;;;;12.63;9.75;;;;;;;17.37;67.51;99863.28;4884571;28;96578;-76
2021/09/17 02:56:06;;;;;;;10.98;8.13;;;;;;;17.40;67.16;99855.94;4900724;28;96781;-76
2021/09/17 02:58:32;;;;;;;9.27;8.32;;;;;;;17.36;67.00;99849.16;4899782;28;101334;-76
2021/09/17 03:00:57;;;;;;;12.40;8.82;;;;;;;17.30;67.59;99849.56;4917532;28;97397;-76
2021/09/17 03:03:23;;;;;;;8.82;7.97;;;;;;;17.28;67.40;99853.28;4916774;28;96552;-76
2021/09/17 03:05:48;;;;;;;9.85;8.85;;;;;;;17.27;67.58;99851.59;4900886;28;96844;-76
2021/09/17 03:08:14;;;;;;;11.00;7.75;;;;;;;17.26;67.24;99841.94;4900214;28;98539;-76
2021/09/17 03:10:39;;;;;;;10.85;8.05;;;;;;;17.26;67.50;99853.41;4899923;28;101393;-76
2021/09/17 03:13:05;;;;;;;9.18;8.15;;;;;;;17.23;67.33;99850.13;4931022;28;96541;-76
2021/09/17 03:15:31;;;;;;;11.15;8.65;;;;;;;17.25;67.34;99854.38;4900114;28;96910;-76
2021/09/17 03:17:56;;;;;;;9.73;8.18;;;;;;;17.39;66.92;99848.97;4899950;28;97545;-76
2021/09/17 03:20:21;;;;;;;11.00;7.72;;;;;;;17.32;67.13;99841.53;4915928;28;98063;-76
2021/09/17 03:22:48;;;;;;;8.57;7.78;;;;;;;17.36;67.25;99843.84;4900318;28;96595;-76
2021/09/17 03:25:14;;;;;;;11.02;7.90;;;;;;;17.26;67.51;99844.59;4899975;28;96786;-76
2021/09/17 03:27:39;;;;;;;8.50;7.63;;;;;;;17.31;67.14;99845.97;4915979;28;97570;-76
2021/09/17 03:30:05;;;;;;;11.93;7.63;;;;;;;17.28;67.57;99834.72;4899835;28;100883;-76
2021/09/17 03:32:31;;;;;;;9.50;8.60;;;;;;;17.29;67.48;99839.09;4884067;28;96657;-76
2021/09/17 03:34:57;;;;;;;8.80;7.82;;;;;;;17.25;67.63;99841.09;4932624;28;96838;-76
2021/09/17 03:37:22;;;;;;;9.85;7.50;;;;;;;17.20;67.37;99840.56;4915362;28;97543;-77
2021/09/17 03:39:48;;;;;;;8.50;7.47;;;;;;;17.24;67.55;99843.84;4932085;28;97362;-77
2021/09/17 03:42:14;;;;;;;8.55;7.75;;;;;;;17.30;67.23;99833.66;4917444;28;96511;-76
2021/09/17 03:44:39;;;;;;;8.63;7.45;;;;;;;17.23;67.34;99835.06;4899628;28;96914;-76
2021/09/17 03:47:05;;;;;;;8.55;7.60;;;;;;;17.23;67.33;99829.75;4899332;28;97721;-76
2021/09/17 03:49:30;;;;;;;8.85;7.70;;;;;;;17.23;67.62;99829.75;4899242;28;101424;-76
2021/09/17 03:51:56;;;;;;;8.68;7.88;;;;;;;17.26;67.61;99831.34;4915820;28;96616;-76
2021/09/17 03:54:26;;;;;;;8.07;7.38;;;;;;;17.14;67.31;99817.97;4884077;28;96862;-76
2021/09/17 03:56:53;;;;;;;7.60;6.85;;;;;;;17.19;67.56;99823.81;4930957;28;99300;-76
2021/09/17 03:59:18;;;;;;;8.38;7.13;;;;;;;17.22;67.65;99824.53;4899000;28;97421;-76
2021/09/17 04:01:45;;;;;;;8.32;7.22;;;;;;;17.17;67.62;99819.56;4931063;28;96563;-76
2021/09/17 04:04:10;;;;;;;7.40;6.78;;;;;;;17.26;67.35;99818.06;4915660;28;96870;-77
2021/09/17 04:06:36;;;;;;;8.75;7.05;;;;;;;17.25;67.45;99829.63;4883099;28;101890;-76
2021/09/17 04:09:01;;;;;;;8.20;7.47;;;;;;;17.22;67.55;99828.06;4915141;28;101552;-76
2021/09/17 04:11:27;;;;;;;9.82;8.02;;;;;;;17.14;67.81;99825.09;4916811;28;96499;-76
2021/09/17 04:13:52;;;;;;;8.23;7.35;;;;;;;17.05;68.00;99815.97;4915455;28;96830;-76
2021/09/17 04:16:18;;;;;;;10.38;7.22;;;;;;;17.03;67.97;99820.50;4899152;28;98528;-75
2021/09/17 04:18:43;;;;;;;7.93;7.22;;;;;;;16.85;68.18;99805.88;4899614;28;97400;-76
2021/09/17 04:21:12;;;;;;;8.35;7.35;;;;;;;17.01;68.38;99827.72;4915311;28;96653;-76
2021/09/17 04:23:37;;;;;;;7.82;6.68;;;;;;;16.98;68.23;99823.47;4915210;28;96800;-76
2021/09/17 04:26:02;;;;;;;9.05;7.05;;;;;;;17.01;68.03;99810.97;4898288;28;98563;-76
2021/09/17 04:28:28;;;;;;;11.85;7.28;;;;;;;17.02;67.90;99832.09;4898693;28;100931;-77
2021/09/17 04:30:53;;;;;;;10.55;7.70;;;;;;;16.98;68.27;99833.22;4915341;28;96968;-76
2021/09/17 04:33:19;;;;;;;9.15;8.38;;;;;;;16.98;68.48;99825.28;4899063;28;96757;-76
2021/09/17 04:35:44;;;;;;;9.60;8.32;;;;;;;16.96;68.37;99828.03;4898729;28;101480;-76
2021/09/17 04:38:14;;;;;;;8.95;6.90;;;;;;;16.88;68.72;99819.75;4898983;28;97434;-76
2021/09/17 04:40:40;;;;;;;8.38;6.90;;;;;;;16.94;68.35;99826.44;4883069;28;96840;-76
2021/09/17 04:43:06;;;;;;;13.85;8.10;;;;;;;16.93;68.84;99830.06;4931418;28;96761;-76
2021/09/17 04:45:31;;;;;;;12.20;8.40;;;;;;;16.87;68.34;99818.06;4898268;28;101423;-76
2021/09/17 04:47:57;;;;;;;8.05;7.22;;;;;;;16.91;68.68;99824.84;4914805;28;97135;-76
2021/09/17 04:50:22;;;;;;;8.63;7.38;;;;;;;16.86;69.29;99820.81;4898472;28;96656;-76
2021/09/17 04:52:51;;;;;;;13.45;7.72;;;;;;;16.88;69.02;99824.22;4898763;28;96908;-76
2021/09/17 04:55:17;;;;;;;14.55;7.40;;;;;;;16.88;69.11;99817.13;4898299;28;101789;-75
2021/09/17 04:57:42;;;;;;;10.57;7.85;;;;;;;16.92;68.93;99826.53;4930014;28;101304;-76
2021/09/17 05:00:08;;;;;;;11.15;7.28;;;;;;;16.96;68.74;99832.50;4898089;28;96970;-75
2021/09/17 05:02:34;;;;;;;9.73;7.03;;;;;;;16.97;68.74;99837.69;4914111;28;96857;-75
2021/09/17 05:04:59;;;;;;;10.55;7.13;;;;;;;16.96;69.04;99836.00;4914323;28;97571;-76
2021/09/17 05:07:25;;;;;;;10.45;6.80;;;;;;;16.98;68.89;99826.13;4898163;28;97461;-75
2021/09/17 05:09:50;;;;;;;9.88;7.30;;;;;;;17.04;68.93;99831.97;4914030;28;96534;-78
2021/09/17 05:12:16;;;;;;;12.73;7.57;;;;;;;17.16;68.61;99834.63;4914213;28;96574;-75
2021/09/17 05:14:41;;;;;;;8.73;7.20;;;;;;;17.20;68.50;99827.31;4897086;28;101130;-75
2021/09/17 05:17:07;;;;;;;8.40;7.55;;;;;;;17.31;68.20;99829.22;4897346;28;100807;-76
2021/09/17 05:19:32;;;;;;;8.10;7.30;;;;;;;17.36;68.07;99833.22;4897956;28;96637;-76
2021/09/17 05:22:01;;;;;;;10.55;7.88;;;;;;;17.32;68.17;99826.44;4897931;28;96861;-75
2021/09/17 05:24:26;;;;;;;8.40;6.90;;;;;;;17.39;67.91;99850.72;4929652;28;101365;-80
2021/09/17 05:26:52;;;;;;;8.50;7.03;;;;;;;17.38;68.24;99843.75;4897340;28;101110;-79
2021/09/17 05:29:17;;;;;;;9.82;7.57;;;;;;;17.42;67.91;99848.75;4898001;28;96733;-79
2021/09/17 05:31:43;;;;;;;9.25;7.82;;;;;;;17.39;68.04;99843.66;4898223;28;96853;-80
2021/09/17 05:34:08;;;;;;;11.80;8.35;;;;;;;17.39;68.05;99851.63;4913673;28;97754;-79
2021/09/17 05:36:34;;;;;;;13.45;8.63;;;;;;;17.37;68.34;99840.25;4930428;28;97654;-79
2021/09/17 05:39:00;;;;;;;11.48;8.32;;;;;;;17.46;67.92;99835.25;4900789;28;96622;-79
2021/09/17 05:41:25;;;;;;;10.98;8.35;;;;;;;17.53;68.03;99841.81;4933247;28;96799;-76
2021/09/17 05:43:51;;;;;;;12.68;7.90;;;;;;;17.56;67.83;99830.97;4932773;28;101286;-76
2021/09/17 05:46:17;;;;;;;16.75;8.60;;;;;;;17.64;67.71;99845.41;4900658;28;101210;-76
2021/09/17 05:48:43;;;;;;;15.23;9.38;;;;;;;17.71;67.80;99845.81;4916744;28;96590;-76
2021/09/17 05:51:08;;;;;;;11.52;8.60;;;;;;;17.66;68.10;99837.34;4901507;28;96837;-77
2021/09/17 05:53:34;;;;;;;12.45;8.65;;;;;;;17.76;67.59;99835.72;4900909;28;97473;-76
2021/09/17 05:56:00;;;;;;;10.45;8.82;;;;;;;17.77;67.63;99844.53;4900894;28;101101;-76
2021/09/17 05:58:30;;;;;;;9.52;8.73;;;;;;;17.80;67.16;99839.03;4900044;28;96868;-76
2021/09/17 06:00:57;;;;;;;9.35;7.85;;;;;;;17.81;67.71;99830.97;4901508;28;96694;-77
2021/09/17 06:03:22;;;;;;;16.90;9.15;;;;;;;17.92;66.99;99834.66;4916019;28;98109;-76
2021/09/17 06:05:48;;;;;;;9.75;8.65;;;;;;;17.97;66.97;99840.47;4900335;28;101417;-77
2021/09/17 06:08:14;;;;;;;9.20;7.93;;;;;;;17.94;66.95;99838.03;4916779;28;96608;-76
2021/09/17 06:10:39;;;;;;;14.38;9.15;;;;;;;17.96;67.11;99839.63;4900409;28;97019;-76
2021/09/17 06:13:05;;;;;;;9.75;8.07;;;;;;;17.93;67.21;99839.03;4899843;28;101032;-77
2021/09/17 06:15:30;;;;;;;10.43;8.73;;;;;;;17.98;67.08;99827.09;4900642;28;98071;-75
2021/09/17 06:17:56;;;;;;;10.13;8.18;;;;;;;18.04;66.80;99831.13;4900790;28;96597;-76
2021/09/17 06:20:21;;;;;;;11.38;8.52;;;;;;;18.22;66.92;99831.59;4900854;28;96848;-77
2021/09/17 06:22:47;;;;;;;11.27;8.85;;;;;;;18.10;66.49;99812.09;4916746;28;98588;-77
2021/09/17 06:25:15;;;;;;;9.07;8.02;;;;;;;18.10;67.11;99828.03;4884294;28;101496;-76
2021/09/17 06:27:42;;;;;;;12.95;9.07;;;;;;;18.07;66.79;99829.09;4932278;28;96617;-76
2021/09/17 06:30:08;;;;;;;9.63;7.60;;;;;;;18.12;66.58;99828.72;4932928;28;96818;-76
2021/09/17 06:32:33;;;;;;;10.95;8.60;;;;;;;18.08;66.25;99837.91;4916146;28;101160;-75
2021/09/17 06:34:59;;;;;;;16.65;10.43;;;;;;;18.07;66.61;99831.75;4900176;28;101268;-76
2021/09/17 06:37:24;;;;;;;10.98;8.98;;;;;;;18.03;66.73;99824.09;4916320;28;96577;-75
2021/09/17 06:39:50;;;;;;;13.18;9.55;;;;;;;18.09;66.94;99831.63;4933268;28;96778;-76
2021/09/17 06:42:15;;;;;;;10.00;9.10;;;;;;;18.06;66.99;99821.22;4900032;28;99023;-76
2021/09/17 06:44:41;;;;;;;12.93;8.82;;;;;;;18.09;66.59;99832.50;4916682;28;97448;-76
2021/09/17 06:47:06;;;;;;;10.63;9.15;;;;;;;18.08;66.83;99833.44;4916466;28;96579;-77
2021/09/17 06:49:32;;;;;;;13.95;9.60;;;;;;;18.12;66.60;99833.19;4916700;28;96900;-76
2021/09/17 06:51:58;;;;;;;10.20;8.73;;;;;;;18.11;66.53;99837.66;4883308;28;101079;-77
2021/09/17 06:54:23;;;;;;;10.80;9.90;;;;;;;18.13;66.63;99835.75;4899444;28;101058;-76
2021/09/17 06:56:49;;;;;;;10.05;9.05;;;;;;;18.16;66.64;99838.19;4899880;28;96598;-84
2021/09/17 06:59:14;;;;;;;11.02;9.35;;;;;;;18.26;66.50;99833.88;4915049;28;96962;-83
2021/09/17 07:01:40;;;;;;;10.85;9.60;;;;;;;18.25;66.17;99826.88;4914257;28;101002;-77
2021/09/17 07:04:05;;;;;;;11.85;10.02;;;;;;;18.35;66.26;99839.50;4898789;28;97484;-77
2021/09/17 07:06:33;;;;;;;9.80;8.70;;;;;;;18.37;66.21;99841.06;4915130;28;96568;-77
2021/09/17 07:08:59;;;;;;;11.68;9.45;;;;;;;18.31;66.41;99842.38;4899256;28;96847;-77
2021/09/17 07:11:25;;;;;;;10.93;9.77;;;;;;;18.32;66.28;99835.25;4930768;28;97931;-78
2021/09/17 07:13:50;;;;;;;13.25;11.55;;;;;;;18.33;66.40;99835.16;4898792;28;97742;-77
2021/09/17 07:16:16;;;;;;;12.02;10.77;;;;;;;18.25;66.17;99816.25;4914284;28;96675;-78
2021/09/17 07:18:41;;;;;;;12.75;10.68;;;;;;;18.29;66.48;99827.50;4898675;28;96923;-78
2021/09/17 07:21:07;;;;;;;11.57;10.48;;;;;;;18.35;65.98;99824.38;4882569;28;100699;-79
2021/09/17 07:23:33;;;;;;;13.52;11.40;;;;;;;18.35;66.04;99820.88;4898391;28;101163;-78
2021/09/17 07:25:58;;;;;;;13.73;11.70;;;;;;;18.54;65.65;99826.53;4914438;28;96604;-78
2021/09/17 07:28:24;;;;;;;15.52;10.68;;;;;;;18.57;65.55;99823.66;4898411;28;96727;-77
2021/09/17 07:30:49;;;;;;;14.77;10.77;;;;;;;18.64;65.64;99834.66;4914133;28;101558;-76
2021/09/17 07:33:15;;;;;;;13.55;10.98;;;;;;;18.61;65.43;99821.59;4914469;28;100857;-77
2021/09/17 07:35:40;;;;;;;14.95;11.77;;;;;;;18.62;65.33;99826.81;4914557;28;96542;-76
2021/09/17 07:38:06;;;;;;;12.98;10.45;;;;;;;18.63;65.41;99833.81;4930312;28;97016;-76
2021/09/17 07:40:32;;;;;;;14.13;10.82;;;;;;;18.62;65.08;99836.59;4913482;28;97668;-76
2021/09/17 07:42:57;;;;;;;15.25;12.98;;;;;;;18.58;64.90;99825.34;4914260;28;97594;-76
2021/09/17 07:45:24;;;;;;;14.50;12.27;;;;;;;18.67;65.39;99829.94;4897855;28;96576;-76
2021/09/17 07:47:51;;;;;;;13.35;11.25;;;;;;;18.77;65.23;99841.63;4930289;28;96697;-75
2021/09/17 07:50:17;;;;;;;11.90;10.18;;;;;;;18.74;65.47;99835.72;4914106;28;97583;-75
2021/09/17 07:52:44;;;;;;;15.23;9.45;;;;;;;18.82;65.15;99846.63;4914084;28;97917;-76
2021/09/17 07:55:10;;;;;;;13.25;9.73;;;;;;;18.82;65.05;99835.09;4913626;28;96702;-76
2021/09/17 07:57:35;;;;;;;12.07;8.93;;;;;;;18.83;64.90;99842.13;4898265;28;96645;-75
2021/09/17 08:00:03;;;;;;;11.15;8.63;;;;;;;18.94;64.49;99842.16;4857282;28;1188678;-76
2021/09/17 08:02:37;;;;;;;9.70;8.10;;;;;;;18.93;64.88;99851.09;4896920;28;97723;-75
2021/09/17 08:05:03;;;;;;;11.30;8.05;;;;;;;18.96;64.56;99849.03;4898482;28;96617;-75
2021/09/17 08:07:28;;;;;;;10.32;9.38;;;;;;;18.92;64.14;99847.59;4931511;28;96959;-76
2021/09/17 08:09:54;;;;;;;10.10;8.93;;;;;;;18.92;64.40;99841.44;4898951;28;101407;-75
2021/09/17 08:12:19;;;;;;;10.73;9.73;;;;;;;18.89;64.20;99849.66;4898247;28;100707;-76
2021/09/17 08:14:45;;;;;;;9.93;8.25;;;;;;;18.87;64.22;99836.44;4898752;28;96654;-76
2021/09/17 08:17:10;;;;;;;10.85;9.75;;;;;;;18.97;64.17;99844.59;4916519;28;96765;-76
2021/09/17 08:19:36;;;;;;;13.73;9.25;;;;;;;18.97;63.99;99848.09;4914638;28;97586;-76
2021/09/17 08:22:01;;;;;;;12.88;9.82;;;;;;;18.95;63.99;99842.03;4898701;28;101138;-76
2021/09/17 08:24:27;;;;;;;10.43;9.20;;;;;;;19.09;63.84;99840.16;4882388;28;96590;-76
2021/09/17 08:26:53;;;;;;;10.70;8.85;;;;;;;19.15;63.48;99840.50;4897888;28;96979;-78
2021/09/17 08:29:18;;;;;;;9.93;8.80;;;;;;;19.16;63.04;99852.00;4897764;28;97980;-75
2021/09/17 08:31:45;;;;;;;11.07;8.93;;;;;;;18.97;63.76;99849.91;4930253;28;98204;-76
2021/09/17 08:34:11;;;;;;;9.05;8.20;;;;;;;18.88;63.96;99840.81;4914557;28;96667;-75
2021/09/17 08:36:38;;;;;;;8.77;7.90;;;;;;;19.02;64.21;99847.72;4914872;28;96818;-76
2021/09/17 08:39:05;;;;;;;9.23;8.25;;;;;;;19.15;63.60;99843.16;4930182;28;100198;-75
2021/09/17 08:41:32;;;;;;;8.98;8.18;;;;;;;19.50;62.70;99842.25;4929826;28;101135;-75
2021/09/17 08:43:58;;;;;;;9.57;8.68;;;;;;;19.62;62.04;99832.44;4914614;28;96626;-74
2021/09/17 08:46:24;;;;;;;12.48;9.35;;;;;;;19.66;61.76;99832.13;4898988;28;96589;-75
2021/09/17 08:48:51;;;;;;;10.32;9.52;;;;;;;19.95;60.84;99839.56;4912866;28;98291;-75
2021/09/17 08:51:18;;;;;;;10.70;8.70;;;;;;;20.14;60.05;99833.59;4898126;28;100883;-76
2021/09/17 08:53:44;;;;;;;9.25;8.45;;;;;;;20.48;59.40;99838.84;4930206;28;96958;-76
2021/09/17 08:56:17;;;;;;;8.85;8.07;;;;;;;20.56;59.68;99837.22;4930414;28;96865;-76
2021/09/17 08:58:49;;;;;;;11.43;8.07;;;;;;;20.70;59.71;99832.56;4930057;28;97401;-76
2021/09/17 09:01:36;;;;;;;15.18;8.43;;;;;;;21.01;58.90;99846.84;4914424;28;100827;-75
2021/09/17 09:04:04;;;;;;;10.88;7.72;;;;;;;20.92;58.01;99840.47;4930220;28;96646;-75
2021/09/17 09:06:39;;;;;;;12.23;7.70;;;;;;;20.68;58.71;99831.84;4914302;28;96944;-75
2021/09/17 09:09:14;;;;;;;8.93;8.02;;;;;;;20.46;58.96;99840.78;4914236;28;101721;-76
2021/09/17 09:11:40;;;;;;;8.93;8.00;;;;;;;20.29;58.96;99839.50;4899303;28;101560;-75
2021/09/17 09:14:13;;;;;;;9.90;6.88;;;;;;;20.60;58.47;99834.34;4902317;28;96601;-75
2021/09/17 09:16:44;;;;;;;8.07;7.30;;;;;;;21.03;57.33;99836.84;4934230;28;96500;-78
2021/09/17 09:19:19;;;;;;;;;;;;;;;21.25;57.24;99841.22;4917927;28;97917;-79
2021/09/17 09:21:45;;;;;;;12.25;7.07;;;;;;;21.40;56.67;99818.56;4917560;28;101752;-78
2021/09/17 09:24:14;;;;;;;8.48;7.78;;;;;;;21.56;56.07;99830.59;4885775;28;96554;-78
2021/09/17 09:26:39;;;;;;;6.00;5.50;;;;;;;21.63;55.59;99829.91;4918001;28;96864;-78
2021/09/17 09:29:06;;;;;;;9.75;5.95;;;;;;;21.51;55.78;99832.81;4917631;28;97399;-78
2021/09/17 09:31:40;;;;;;;5.70;5.20;;;;;;;21.87;55.66;99824.19;4900972;28;101831;-76
2021/09/17 09:34:06;;;;;;;8.50;6.38;;;;;;;21.97;54.76;99828.75;4932952;28;96601;-76
2021/09/17 09:36:35;;;;;;;7.95;6.00;;;;;;;21.96;54.80;99824.38;4902154;28;96884;-76
2021/09/17 09:39:02;;;;;;;10.50;6.13;;;;;;;22.30;54.50;99817.69;4901702;28;101397;-76
2021/09/17 09:41:30;;;;;;;6.82;6.13;;;;;;;22.36;53.95;99817.13;4933414;28;97634;-76
2021/09/17 09:43:59;;;;;;;8.45;6.05;;;;;;;22.72;52.98;99820.09;4916728;28;96577;-76
2021/09/17 09:46:41;;;;;;;7.75;6.55;;;;;;;22.72;53.01;99819.25;4917541;28;96890;-76
2021/09/17 09:49:11;;;;;;;8.40;6.05;;;;;;;22.52;53.44;99821.09;4916974;28;101044;-76
2021/09/17 09:51:49;;;;;;;6.85;5.97;;;;;;;22.36;53.86;99805.59;4900995;28;101618;-76
2021/09/17 09:54:15;;;;;;;5.80;5.30;;;;;;;22.43;53.38;99812.09;4885426;28;96698;-77
2021/09/17 09:56:42;;;;;;;7.07;6.47;;;;;;;22.31;53.79;99816.75;4933766;28;96820;-85
2021/09/17 09:59:08;;;;;;;6.50;5.40;;;;;;;21.96;54.25;99808.34;4916737;28;98069;-77
2021/09/17 10:01:36;;;;;;;6.60;4.90;;;;;;;21.69;54.65;99817.81;4901042;28;101547;-77
2021/09/17 10:04:03;;;;;;;8.05;5.10;;;;;;;22.04;54.22;99814.69;4901091;28;96827;-79
2021/09/17 10:06:34;;;;;;;5.57;5.07;;;;;;;22.44;53.13;99807.59;4932863;28;96759;-77
2021/09/17 10:09:00;;;;;;;6.15;4.55;;;;;;;22.72;52.60;99811.22;4932509;28;97449;-78
2021/09/17 10:11:26;;;;;;;5.10;4.70;;;;;;;23.07;52.10;99805.28;4916610;28;97960;-78
2021/09/17 10:13:55;;;;;;;12.30;5.15;;;;;;;22.67;52.58;99808.16;4900548;28;96594;-78
2021/09/17 10:16:22;;;;;;;8.02;6.65;;;;;;;22.80;52.64;99808.69;4932926;28;96771;-77
2021/09/17 10:18:47;;;;;;;6.05;5.45;;;;;;;22.47;52.58;99802.78;4917113;28;97680;-78
2021/09/17 10:21:13;;;;;;;6.20;5.68;;;;;;;22.33;53.22;99797.88;4900484;28;101353;-77
2021/09/17 10:23:43;;;;;;;5.20;4.70;;;;;;;22.14;53.61;99796.84;4900527;28;96587;-77
2021/09/17 10:26:11;;;;;;;5.70;5.07;;;;;;;22.19;54.01;99796.44;4917740;28;96770;-79
2021/09/17 10:29:04;;;;;;;6.55;5.43;;;;;;;22.31;53.40;99797.16;4916745;28;97222;-77
2021/09/17 10:31:41;;;;;;;5.70;5.10;;;;;;;22.10;53.64;99795.41;4931978;28;102064;-77
2021/09/17 10:34:29;;;;;;;6.35;4.82;;;;;;;21.97;53.82;99800.19;4900335;28;96571;-77
2021/09/17 10:36:54;;;;;;;5.22;4.72;;;;;;;21.82;54.23;99785.56;4933008;28;96740;-80
2021/09/17 10:39:20;;;;;;;5.53;4.82;;;;;;;21.73;53.77;99802.38;4932257;28;101653;-77
2021/09/17 10:42:12;;;;;;;5.90;4.35;;;;;;;21.64;53.74;99801.34;4899940;28;101400;-79
2021/09/17 10:45:02;;;;;;;6.80;4.70;;;;;;;21.61;53.69;99798.97;4932478;28;96721;-77
2021/09/17 10:47:40;;;;;;;9.88;5.05;;;;;;;21.49;53.71;99798.22;4900342;28;96875;-77
2021/09/17 10:50:14;;;;;;;5.40;4.90;;;;;;;21.65;53.78;99795.06;4916563;28;98472;-77
2021/09/17 10:52:47;;;;;;;4.95;4.60;;;;;;;21.65;53.72;99781.69;4916959;28;97932;-77
2021/09/17 10:55:44;;;;;;;6.53;4.57;;;;;;;21.62;52.83;99790.00;4900771;28;96785;-77
2021/09/17 10:58:27;;;;;;;4.90;4.60;;;;;;;21.57;53.18;99790.38;4915963;28;97050;-78
2021/09/17 11:01:04;;;;;;;4.72;4.07;;;;;;;21.46;53.91;99799.31;4899738;28;97431;-77
2021/09/17 11:03:39;;;;;;;4.38;3.95;;;;;;;21.40;53.82;99801.69;4915906;28;98059;-77
2021/09/17 11:06:20;;;;;;;4.70;4.30;;;;;;;21.37;54.21;99796.63;4932307;28;96668;-77
2021/09/17 11:09:06;;;;;;;4.60;4.30;;;;;;;21.22;53.99;99798.78;4916366;28;96635;-77
2021/09/17 11:11:34;;;;;;;6.00;4.50;;;;;;;21.24;54.54;99795.00;4863626;28;101944;-77
2021/09/17 11:14:06;;;;;;;7.13;4.57;;;;;;;21.10;54.49;99782.00;4879518;28;101385;-77
2021/09/17 11:16:32;;;;;;;5.47;4.00;;;;;;;21.00;54.79;99792.63;4880326;28;96868;-77
2021/09/17 11:19:04;;;;;;;5.35;4.40;;;;;;;20.90;55.20;99793.53;4880295;28;96698;-78
2021/09/17 11:21:32;;;;;;;4.95;4.22;;;;;;;20.69;55.78;99793.56;4878632;28;101216;-78
2021/09/17 11:23:59;;;;;;;4.30;3.90;;;;;;;20.51;56.49;99795.91;4879534;28;97896;-80
2021/09/17 11:26:33;;;;;;;8.80;4.00;;;;;;;20.33;57.79;99812.47;4895449;28;96959;-78